createdAt,value
2022-10-13T00:00:59.891Z,19.33
2022-10-13T00:03:27.191Z,19.17
2022-10-13T00:05:54.266Z,19.38
2022-10-13T00:08:24.339Z,20.20
2022-10-13T00:10:51.698Z,19.17
2022-10-13T00:13:19.178Z,22.38
2022-10-13T00:15:47.455Z,20.85
2022-10-13T00:18:14.566Z,21.55
2022-10-13T00:20:49.735Z,19.90
2022-10-13T00:23:17.335Z,20.73
2022-10-13T00:25:45.406Z,23.83
2022-10-13T00:28:12.935Z,22.90
2022-10-13T00:30:40.408Z,20.73
2022-10-13T00:33:07.681Z,21.25
2022-10-13T00:35:34.954Z,22.88
2022-10-13T00:38:02.077Z,21.42
2022-10-13T00:40:29.153Z,20.30
2022-10-13T00:42:56.309Z,22.27
2022-10-13T00:45:27.457Z,21.90
2022-10-13T00:47:57.290Z,20.17
2022-10-13T00:50:26.329Z,18.88
2022-10-13T00:52:53.852Z,19.15
2022-10-13T00:55:24.126Z,20.65
2022-10-13T00:57:54.991Z,19.67
2022-10-13T01:00:24.350Z,20.35
2022-10-13T01:02:51.832Z,22.90
2022-10-13T01:05:19.729Z,22.20
2022-10-13T01:07:49.032Z,21.30
2022-10-13T01:10:24.728Z,22.08
2022-10-13T01:12:51.759Z,21.73
2022-10-13T01:15:18.768Z,21.52
2022-10-13T01:17:45.883Z,22.30
2022-10-13T01:20:32.889Z,21.47
2022-10-13T01:23:07.348Z,21.25
2022-10-13T01:25:38.596Z,22.47
2022-10-13T01:28:05.634Z,21.90
2022-10-13T01:30:37.084Z,19.42
2022-10-13T01:33:06.513Z,22.05
2022-10-13T01:35:53.494Z,21.80
2022-10-13T01:38:40.245Z,21.13
2022-10-13T01:41:14.621Z,21.85
2022-10-13T01:43:45.443Z,21.88
2022-10-13T01:46:17.052Z,21.23
2022-10-13T01:48:46.179Z,22.63
2022-10-13T01:51:15.071Z,20.50
2022-10-13T01:53:43.291Z,21.27
2022-10-13T01:56:10.405Z,21.05
2022-10-13T01:58:38.267Z,21.23
2022-10-13T02:01:06.439Z,20.37
2022-10-13T02:03:42.023Z,19.40
2022-10-13T02:06:09.108Z,20.35
2022-10-13T02:08:56.134Z,19.65
2022-10-13T02:11:23.555Z,20.33
2022-10-13T02:13:54.611Z,19.42
2022-10-13T02:16:23.566Z,18.88
2022-10-13T02:18:51.243Z,18.00
2022-10-13T02:21:18.766Z,18.75
2022-10-13T02:23:45.980Z,18.02
2022-10-13T02:26:13.671Z,18.35
2022-10-13T02:28:41.374Z,18.88
2022-10-13T02:31:08.912Z,18.85
2022-10-13T02:33:36.018Z,18.88
2022-10-13T02:36:03.053Z,18.23
2022-10-13T02:38:30.874Z,16.00
2022-10-13T02:40:58.298Z,15.73
2022-10-13T02:43:25.470Z,17.65
2022-10-13T02:45:52.574Z,17.77
2022-10-13T02:48:19.699Z,18.25
2022-10-13T02:50:47.581Z,18.70
2022-10-13T02:53:14.609Z,19.48
2022-10-13T02:55:41.947Z,18.30
2022-10-13T02:58:09.009Z,18.07
2022-10-13T03:00:36.183Z,19.75
2022-10-13T03:03:03.351Z,19.15
2022-10-13T03:05:30.439Z,20.10
2022-10-13T03:07:57.574Z,19.77
2022-10-13T03:10:24.677Z,19.92
2022-10-13T03:12:51.738Z,20.00
2022-10-13T03:15:18.840Z,19.90
2022-10-13T03:17:45.875Z,18.58
2022-10-13T03:20:13.028Z,19.30
2022-10-13T03:22:40.061Z,18.23
2022-10-13T03:25:07.442Z,17.92
2022-10-13T03:27:34.858Z,18.27
2022-10-13T03:30:01.967Z,18.58
2022-10-13T03:32:31.554Z,17.63
2022-10-13T03:34:58.653Z,17.42
2022-10-13T03:37:25.737Z,17.95
2022-10-13T03:39:52.803Z,19.40
2022-10-13T03:42:20.313Z,18.47
2022-10-13T03:44:52.336Z,18.08
2022-10-13T03:47:22.387Z,18.17
2022-10-13T03:49:49.671Z,18.85
2022-10-13T03:52:16.865Z,19.63
2022-10-13T03:54:44.191Z,18.42
2022-10-13T03:57:11.763Z,18.07
2022-10-13T03:59:40.731Z,17.90
2022-10-13T04:02:08.248Z,18.98
2022-10-13T04:04:35.574Z,18.65
2022-10-13T04:07:02.618Z,19.35
2022-10-13T04:09:29.783Z,19.67
2022-10-13T04:11:56.826Z,18.80
2022-10-13T04:14:23.878Z,18.88
2022-10-13T04:16:50.939Z,18.93
2022-10-13T04:19:18.047Z,17.65
2022-10-13T04:21:45.265Z,17.98
2022-10-13T04:24:13.096Z,18.48
2022-10-13T04:26:40.653Z,17.35
2022-10-13T04:29:09.109Z,17.77
2022-10-13T04:31:36.995Z,18.10
2022-10-13T04:34:04.030Z,18.00
2022-10-13T04:36:31.113Z,17.05
2022-10-13T04:38:58.255Z,18.30
2022-10-13T04:41:25.990Z,17.15
2022-10-13T04:43:53.738Z,17.88
2022-10-13T04:46:23.278Z,16.92
2022-10-13T04:48:50.632Z,17.02
2022-10-13T04:51:19.185Z,17.92
2022-10-13T04:53:46.422Z,18.90
2022-10-13T04:56:15.157Z,17.95
2022-10-13T04:58:43.186Z,18.00
2022-10-13T05:01:16.468Z,16.50
2022-10-13T05:03:47.581Z,17.00
2022-10-13T05:06:15.881Z,16.95
2022-10-13T05:08:43.062Z,16.88
2022-10-13T05:11:10.162Z,17.20
2022-10-13T05:13:37.409Z,17.17
2022-10-13T05:16:08.608Z,18.15
2022-10-13T05:18:36.050Z,18.13
2022-10-13T05:21:11.256Z,17.27
2022-10-13T05:23:39.045Z,18.00
2022-10-13T05:26:07.409Z,18.33
2022-10-13T05:28:34.429Z,17.10
2022-10-13T05:31:09.973Z,16.63
2022-10-13T05:33:37.477Z,15.95
2022-10-13T05:36:05.638Z,15.98
2022-10-13T05:38:32.721Z,15.95
2022-10-13T05:41:03.836Z,16.75
2022-10-13T05:43:31.869Z,16.38
2022-10-13T05:45:59.341Z,16.40
2022-10-13T05:48:26.400Z,16.80
2022-10-13T05:50:53.794Z,16.98
2022-10-13T05:53:21.204Z,16.17
2022-10-13T05:55:50.627Z,16.53
2022-10-13T05:58:18.298Z,17.05
2022-10-13T06:00:45.664Z,16.67
2022-10-13T06:03:15.637Z,17.48
2022-10-13T06:05:45.119Z,18.40
2022-10-13T06:08:12.180Z,18.75
2022-10-13T06:10:39.799Z,18.40
2022-10-13T06:13:06.853Z,17.50
2022-10-13T06:15:33.924Z,17.80
2022-10-13T06:18:01.144Z,18.50
2022-10-13T06:20:28.484Z,17.65
2022-10-13T06:22:56.055Z,17.30
2022-10-13T06:25:23.456Z,18.20
2022-10-13T06:27:50.732Z,19.05
2022-10-13T06:30:17.848Z,19.00
2022-10-13T06:32:44.864Z,19.40
2022-10-13T06:35:11.996Z,20.73
2022-10-13T06:37:39.189Z,20.02
2022-10-13T06:40:06.644Z,19.83
2022-10-13T06:42:34.766Z,19.80
2022-10-13T06:45:02.011Z,19.95
2022-10-13T06:47:29.120Z,20.57
2022-10-13T06:49:56.200Z,20.40
2022-10-13T06:52:23.331Z,19.60
2022-10-13T06:54:50.396Z,19.25
2022-10-13T06:57:17.451Z,21.20
2022-10-13T06:59:44.508Z,19.58
2022-10-13T07:02:11.958Z,20.00
2022-10-13T07:04:39.052Z,19.67
2022-10-13T07:07:06.147Z,19.52
2022-10-13T07:09:33.218Z,18.95
2022-10-13T07:12:00.336Z,18.55
2022-10-13T07:14:27.424Z,18.02
2022-10-13T07:16:54.410Z,19.45
2022-10-13T07:19:21.527Z,17.95
2022-10-13T07:21:48.580Z,17.63
2022-10-13T07:24:15.692Z,18.33
2022-10-13T07:26:42.744Z,18.67
2022-10-13T07:29:10.093Z,17.47
2022-10-13T07:31:37.172Z,17.30
2022-10-13T07:34:04.989Z,16.92
2022-10-13T07:36:33.062Z,16.65
2022-10-13T07:39:01.284Z,17.40
2022-10-13T07:41:28.367Z,16.85
2022-10-13T07:43:57.280Z,16.17
2022-10-13T07:46:25.363Z,16.85
2022-10-13T07:48:53.774Z,17.60
2022-10-13T07:51:21.575Z,18.38
2022-10-13T07:53:48.782Z,17.33
2022-10-13T07:56:16.486Z,17.60
2022-10-13T07:58:45.286Z,17.35
2022-10-13T08:01:12.798Z,17.73
2022-10-13T08:03:41.971Z,17.52
2022-10-13T08:06:11.714Z,17.50
2022-10-13T08:08:40.165Z,18.27
2022-10-13T08:11:10.026Z,18.02
2022-10-13T08:13:38.483Z,17.30
2022-10-13T08:16:05.698Z,18.30
2022-10-13T08:18:32.818Z,17.25
2022-10-13T08:23:49.770Z,18.10
2022-10-13T08:26:21.566Z,17.85
2022-10-13T08:29:09.606Z,18.20
2022-10-13T08:31:36.212Z,18.20
2022-10-13T08:34:03.449Z,17.93
2022-10-13T08:36:30.840Z,18.85
2022-10-13T08:38:57.897Z,18.25
2022-10-13T08:41:26.243Z,18.42
2022-10-13T08:44:33.652Z,18.85
2022-10-13T08:46:47.705Z,17.42
2022-10-13T08:49:16.506Z,19.70
2022-10-13T08:51:43.961Z,19.75
2022-10-13T08:54:15.236Z,19.20
2022-10-13T08:56:43.389Z,18.20
2022-10-13T08:59:13.977Z,18.60
2022-10-13T09:01:42.054Z,19.10
2022-10-13T09:04:16.630Z,18.85
2022-10-13T09:06:46.074Z,18.27
2022-10-13T09:09:15.554Z,18.08
2022-10-13T09:11:44.486Z,17.92
2022-10-13T09:14:13.820Z,17.92
2022-10-13T09:16:42.136Z,17.92
2022-10-13T09:19:13.541Z,17.83
2022-10-13T09:21:40.658Z,17.30
2022-10-13T09:24:08.783Z,16.90
2022-10-13T09:26:39.918Z,17.27
2022-10-13T09:29:08.905Z,17.10
2022-10-13T09:31:37.446Z,16.95
2022-10-13T09:34:20.112Z,16.37
2022-10-13T09:37:03.817Z,16.25
2022-10-13T09:39:31.729Z,15.48
2022-10-13T09:42:19.005Z,15.75
2022-10-13T09:44:46.812Z,15.15
2022-10-13T09:47:21.998Z,15.73
2022-10-13T09:50:04.684Z,15.98
2022-10-13T09:52:34.653Z,16.00
2022-10-13T09:55:01.813Z,15.20
2022-10-13T09:57:46.321Z,16.10
2022-10-13T10:00:17.708Z,15.23
2022-10-13T10:02:49.397Z,15.47
2022-10-13T10:05:19.775Z,15.60
2022-10-13T10:07:47.049Z,15.50
2022-10-13T10:10:22.308Z,15.70
2022-10-13T10:12:50.160Z,15.97
2022-10-13T10:15:21.167Z,15.30
2022-10-13T10:17:52.784Z,17.13
2022-10-13T10:20:33.487Z,16.42
2022-10-13T10:23:08.847Z,15.82
2022-10-13T10:25:36.887Z,16.65
2022-10-13T10:28:16.894Z,15.63
2022-10-13T10:30:47.760Z,15.55
2022-10-13T10:33:20.922Z,15.38
2022-10-13T10:35:50.354Z,17.00
2022-10-13T10:38:18.407Z,17.10
2022-10-13T10:40:52.440Z,16.38
2022-10-13T10:43:19.468Z,16.33
2022-10-13T10:45:48.208Z,16.17
2022-10-13T10:48:20.651Z,17.40
2022-10-13T10:50:47.879Z,16.35
2022-10-13T10:53:20.177Z,15.85
2022-10-13T10:55:50.355Z,15.43
2022-10-13T10:58:23.591Z,15.73
2022-10-13T11:01:10.637Z,14.45
2022-10-13T11:03:37.690Z,14.38
2022-10-13T11:06:05.973Z,14.48
2022-10-13T11:08:41.916Z,13.85
2022-10-13T11:11:33.453Z,14.55
2022-10-13T11:14:06.895Z,13.82
2022-10-13T11:16:40.816Z,13.25
2022-10-13T11:19:08.960Z,12.80
2022-10-13T11:21:56.152Z,13.60
2022-10-13T11:24:43.125Z,13.80
2022-10-13T11:27:10.638Z,13.65
2022-10-13T11:29:46.192Z,12.70
2022-10-13T11:32:34.165Z,12.63
2022-10-13T11:35:02.406Z,13.48
2022-10-13T11:37:34.972Z,12.87
2022-10-13T11:40:15.915Z,12.98
2022-10-13T11:43:05.220Z,12.07
2022-10-13T11:45:35.659Z,12.82
2022-10-13T11:48:03.781Z,12.90
2022-10-13T11:50:50.759Z,13.50
2022-10-13T11:53:18.789Z,13.00
2022-10-13T11:55:45.843Z,12.95
2022-10-13T11:58:12.871Z,13.98
2022-10-13T12:00:49.855Z,13.68
2022-10-13T12:03:26.687Z,13.43
2022-10-13T12:05:54.346Z,13.82
2022-10-13T12:08:21.829Z,14.30
2022-10-13T12:10:55.570Z,14.70
2022-10-13T12:13:24.848Z,13.37
2022-10-13T12:15:59.916Z,13.93
2022-10-13T12:18:28.655Z,13.70
2022-10-13T12:20:56.663Z,14.57
2022-10-13T12:23:24.022Z,14.80
2022-10-13T12:25:56.812Z,14.77
2022-10-13T12:28:25.857Z,15.02
2022-10-13T12:30:54.177Z,14.23
2022-10-13T12:33:27.788Z,13.98
2022-10-13T12:35:54.860Z,14.35
2022-10-13T12:38:22.953Z,13.30
2022-10-13T12:40:50.808Z,13.30
2022-10-13T12:43:19.686Z,12.67
2022-10-13T12:45:47.026Z,14.05
2022-10-13T12:48:34.054Z,13.18
2022-10-13T12:51:10.618Z,14.30
2022-10-13T12:53:39.308Z,13.20
2022-10-13T12:56:06.633Z,13.63
2022-10-13T12:58:35.293Z,12.52
2022-10-13T13:01:08.320Z,12.70
2022-10-13T13:03:37.091Z,12.53
2022-10-13T13:06:08.786Z,12.05
2022-10-13T13:08:35.850Z,12.00
2022-10-13T13:11:05.142Z,11.93
2022-10-13T13:13:32.208Z,11.73
2022-10-13T13:16:17.066Z,12.27
2022-10-13T13:18:45.105Z,12.65
2022-10-13T13:21:12.987Z,11.95
2022-10-13T13:23:40.704Z,12.57
2022-10-13T13:26:13.168Z,11.35
2022-10-13T13:28:43.246Z,11.77
2022-10-13T13:31:11.540Z,11.02
2022-10-13T13:33:38.697Z,11.97
2022-10-13T13:36:06.133Z,11.45
2022-10-13T13:38:33.286Z,11.07
2022-10-13T13:41:03.167Z,11.27
2022-10-13T13:43:31.253Z,10.33
2022-10-13T13:45:58.337Z,11.30
2022-10-13T13:48:26.650Z,10.43
2022-10-13T13:50:53.341Z,11.23
2022-10-13T13:53:20.428Z,11.30
2022-10-13T13:55:48.232Z,11.03
2022-10-13T13:58:15.364Z,10.20
2022-10-13T14:00:42.499Z,10.90
2022-10-13T14:03:09.586Z,11.35
2022-10-13T14:05:40.065Z,10.55
2022-10-13T14:08:07.238Z,10.52
2022-10-13T14:10:34.544Z,10.95
2022-10-13T14:13:02.283Z,10.63
2022-10-13T14:15:29.940Z,10.98
2022-10-13T14:17:57.228Z,10.55
2022-10-13T14:20:24.427Z,9.98
2022-10-13T14:22:51.543Z,10.43
2022-10-13T14:25:18.847Z,10.63
2022-10-13T14:27:45.852Z,15.00
2022-10-13T14:30:13.255Z,10.43
2022-10-13T14:32:39.959Z,10.48
2022-10-13T14:35:07.159Z,13.70
2022-10-13T14:37:34.532Z,11.10
2022-10-13T14:40:02.099Z,12.15
2022-10-13T14:42:29.189Z,11.85
2022-10-13T14:44:56.272Z,10.50
2022-10-13T14:47:23.550Z,9.30
2022-10-13T14:49:50.907Z,8.52
2022-10-13T14:52:17.993Z,9.13
2022-10-13T14:54:45.304Z,8.73
2022-10-13T14:57:15.925Z,8.60
2022-10-13T14:59:43.242Z,8.95
2022-10-13T15:02:11.459Z,8.80
2022-10-13T15:04:38.610Z,9.20
2022-10-13T15:07:07.046Z,8.77
2022-10-13T15:09:45.447Z,8.10
2022-10-13T15:12:21.012Z,7.80
2022-10-13T15:14:48.421Z,7.90
2022-10-13T15:17:15.466Z,8.75
2022-10-13T15:19:42.535Z,7.63
2022-10-13T15:22:09.697Z,7.70
2022-10-13T15:24:36.834Z,7.18
2022-10-13T15:27:03.902Z,7.70
2022-10-13T15:29:30.974Z,7.40
2022-10-13T15:32:08.353Z,7.82
2022-10-13T15:34:35.518Z,7.75
2022-10-13T15:37:02.627Z,8.02
2022-10-13T15:39:29.689Z,7.70
2022-10-13T15:41:56.842Z,8.40
2022-10-13T15:44:25.685Z,8.63
2022-10-13T15:47:07.410Z,8.82
2022-10-13T15:49:37.721Z,8.80
2022-10-13T15:52:04.945Z,8.50
2022-10-13T15:54:32.177Z,7.60
2022-10-13T15:56:58.851Z,8.70
2022-10-13T15:59:25.915Z,8.60
2022-10-13T16:01:53.029Z,8.07
2022-10-13T16:04:20.092Z,9.30
2022-10-13T16:06:47.169Z,8.23
2022-10-13T16:09:13.769Z,8.68
2022-10-13T16:11:40.904Z,9.77
2022-10-13T16:14:07.986Z,9.30
2022-10-13T16:16:35.045Z,8.50
2022-10-13T16:19:02.103Z,8.23
2022-10-13T16:21:29.191Z,8.35
2022-10-13T16:23:56.729Z,8.77
2022-10-13T16:26:23.949Z,9.45
2022-10-13T16:28:54.648Z,10.02
2022-10-13T16:31:21.891Z,9.35
2022-10-13T16:33:49.215Z,10.98
2022-10-13T16:36:17.616Z,10.80
2022-10-13T16:38:45.597Z,9.85
2022-10-13T16:41:14.548Z,15.20
2022-10-13T16:43:42.199Z,9.90
2022-10-13T16:46:13.165Z,8.48
2022-10-13T16:48:41.018Z,8.52
2022-10-13T16:51:09.622Z,8.57
2022-10-13T16:53:36.645Z,8.87
2022-10-13T16:56:04.748Z,8.55
2022-10-13T16:58:32.028Z,8.40
2022-10-13T17:01:03.081Z,8.82
2022-10-13T17:03:30.225Z,13.82
2022-10-13T17:05:57.360Z,16.50
2022-10-13T17:08:24.464Z,13.00
2022-10-13T17:10:57.809Z,11.27
2022-10-13T17:13:25.701Z,10.77
2022-10-13T17:15:53.416Z,10.52
2022-10-13T17:18:20.616Z,10.23
2022-10-13T17:20:51.892Z,10.40
2022-10-13T17:23:19.505Z,10.75
2022-10-13T17:25:46.831Z,10.43
2022-10-13T17:28:14.040Z,10.83
2022-10-13T17:30:41.179Z,9.40
2022-10-13T17:33:08.858Z,9.77
2022-10-13T17:35:35.951Z,9.03
2022-10-13T17:38:03.056Z,9.68
2022-10-13T17:40:30.164Z,9.50
2022-10-13T17:42:57.265Z,9.38
2022-10-13T17:45:24.817Z,9.40
2022-10-13T17:47:52.317Z,10.63
2022-10-13T17:50:19.471Z,10.35
2022-10-13T17:52:46.668Z,9.95
2022-10-13T17:55:13.936Z,10.50
2022-10-13T17:57:41.013Z,11.00
2022-10-13T18:00:08.408Z,13.23
2022-10-13T18:02:35.492Z,19.63
2022-10-13T18:05:02.592Z,15.60
2022-10-13T18:07:29.683Z,12.88
2022-10-13T18:09:56.731Z,11.27
2022-10-13T18:12:23.891Z,12.07
2022-10-13T18:14:50.537Z,14.35
2022-10-13T18:17:17.736Z,13.20
2022-10-13T18:19:44.992Z,12.80
2022-10-13T18:22:12.164Z,10.63
2022-10-13T18:24:39.447Z,11.13
2022-10-13T18:27:06.620Z,10.40
2022-10-13T18:29:33.729Z,12.27
2022-10-13T18:32:00.812Z,13.45
2022-10-13T18:34:27.883Z,12.57
2022-10-13T18:36:55.102Z,13.10
2022-10-13T18:39:22.528Z,10.80
2022-10-13T18:41:50.503Z,10.35
2022-10-13T18:44:17.555Z,10.82
2022-10-13T18:46:45.345Z,11.33
2022-10-13T18:49:13.682Z,11.38
2022-10-13T18:51:41.007Z,12.10
2022-10-13T18:54:08.476Z,12.32
2022-10-13T18:56:38.759Z,13.50
2022-10-13T18:59:06.902Z,12.10
2022-10-13T19:01:34.853Z,11.55
2022-10-13T19:04:02.240Z,12.20
2022-10-13T19:06:32.158Z,13.27
2022-10-13T19:09:01.403Z,13.30
2022-10-13T19:11:29.764Z,13.40
2022-10-13T19:13:58.258Z,14.38
2022-10-13T19:16:26.690Z,15.10
2022-10-13T19:18:53.838Z,13.60
2022-10-13T19:21:21.738Z,12.45
2022-10-13T19:23:49.410Z,11.60
2022-10-13T19:26:18.424Z,12.70
2022-10-13T19:28:45.592Z,12.68
2022-10-13T19:31:13.816Z,12.45
2022-10-13T19:33:44.749Z,12.53
2022-10-13T19:36:19.195Z,14.37
2022-10-13T19:38:46.363Z,18.73
2022-10-13T19:41:13.466Z,21.55
2022-10-13T19:43:40.510Z,18.95
2022-10-13T19:46:07.864Z,19.08
2022-10-13T19:48:35.013Z,16.80
2022-10-13T19:51:02.450Z,18.07
2022-10-13T19:53:29.634Z,14.05
2022-10-13T19:55:56.702Z,12.30
2022-10-13T19:58:23.702Z,12.80
2022-10-13T20:00:50.884Z,13.85
2022-10-13T20:03:18.082Z,12.85
2022-10-13T20:05:45.164Z,12.25
2022-10-13T20:08:12.640Z,14.43
2022-10-13T20:10:40.443Z,13.88
2022-10-13T20:13:08.099Z,13.38
2022-10-13T20:15:38.910Z,17.20
2022-10-13T20:18:07.079Z,17.08
2022-10-13T20:20:34.914Z,17.52
2022-10-13T20:23:02.077Z,16.60
2022-10-13T20:25:29.171Z,19.27
2022-10-13T20:27:56.254Z,23.20
2022-10-13T20:30:23.522Z,22.60
2022-10-13T20:32:50.667Z,23.10
2022-10-13T20:35:17.430Z,18.80
2022-10-13T20:37:44.451Z,17.77
2022-10-13T20:40:11.844Z,19.30
2022-10-13T20:42:39.182Z,19.90
2022-10-13T20:45:06.562Z,20.58
2022-10-13T20:47:33.687Z,27.00
2022-10-13T20:50:00.340Z,27.10
2022-10-13T20:52:27.087Z,23.63
2022-10-13T20:54:54.182Z,24.60
2022-10-13T20:57:21.518Z,26.02
2022-10-13T20:59:49.655Z,22.80
2022-10-13T21:02:17.060Z,21.42
2022-10-13T21:04:44.097Z,18.00
2022-10-13T21:07:11.197Z,18.08
2022-10-13T21:09:38.294Z,17.13
2022-10-13T21:12:06.069Z,17.35
2022-10-13T21:14:33.066Z,17.58
2022-10-13T21:17:00.259Z,17.65
2022-10-13T21:19:29.128Z,17.50
2022-10-13T21:21:56.212Z,18.15
2022-10-13T21:24:23.263Z,18.88
2022-10-13T21:26:50.358Z,18.85
2022-10-13T21:29:17.435Z,20.13
2022-10-13T21:31:44.479Z,19.15
2022-10-13T21:34:11.654Z,20.08
2022-10-13T21:36:42.363Z,20.38
2022-10-13T21:39:10.219Z,20.35
2022-10-13T21:41:37.255Z,21.05
2022-10-13T21:44:04.665Z,20.90
2022-10-13T21:46:32.892Z,20.45
2022-10-13T21:49:01.255Z,20.48
2022-10-13T21:51:29.999Z,20.80
2022-10-13T21:53:58.304Z,18.33
2022-10-13T21:56:26.100Z,17.77
2022-10-13T21:58:53.817Z,18.17
2022-10-13T22:01:21.446Z,19.40
2022-10-13T22:03:49.259Z,19.60
2022-10-13T22:06:19.615Z,19.63
2022-10-13T22:08:47.925Z,17.17
2022-10-13T22:11:15.324Z,17.35
2022-10-13T22:13:42.029Z,17.60
2022-10-13T22:16:10.666Z,17.08
2022-10-13T22:18:37.731Z,16.40
2022-10-13T22:21:06.195Z,16.77
2022-10-13T22:23:33.104Z,16.75
2022-10-13T22:26:00.210Z,16.70
2022-10-13T22:28:27.290Z,17.45
2022-10-13T22:30:54.449Z,18.30
2022-10-13T22:33:21.567Z,17.75
2022-10-13T22:35:48.623Z,16.20
2022-10-13T22:38:15.892Z,17.25
2022-10-13T22:40:43.003Z,16.40
2022-10-13T22:43:10.058Z,16.67
2022-10-13T22:45:37.147Z,15.97
2022-10-13T22:48:04.247Z,15.93
2022-10-13T22:50:31.313Z,16.00
2022-10-13T22:52:58.389Z,14.93
2022-10-13T22:55:25.454Z,15.30
2022-10-13T22:57:52.502Z,16.50
2022-10-13T23:00:19.611Z,15.60
2022-10-13T23:02:46.686Z,15.90
2022-10-13T23:05:14.074Z,15.93
2022-10-13T23:07:41.125Z,16.52
2022-10-13T23:10:08.450Z,16.35
2022-10-13T23:12:35.147Z,17.63
2022-10-13T23:15:01.794Z,16.25
2022-10-13T23:17:28.877Z,17.50
2022-10-13T23:19:56.017Z,15.57
2022-10-13T23:22:23.099Z,16.00
2022-10-13T23:24:50.147Z,16.70
2022-10-13T23:27:17.255Z,15.88
2022-10-13T23:29:44.217Z,16.73
2022-10-13T23:32:11.286Z,16.70
2022-10-13T23:34:38.366Z,15.57
2022-10-13T23:37:05.574Z,16.27
2022-10-13T23:39:32.670Z,15.75
2022-10-13T23:41:59.790Z,15.57
2022-10-13T23:44:26.865Z,15.70
2022-10-13T23:46:54.035Z,14.55
2022-10-13T23:49:21.126Z,16.00
2022-10-13T23:51:48.193Z,15.95
2022-10-13T23:54:15.166Z,15.32
2022-10-13T23:56:42.218Z,14.93
2022-10-13T23:59:09.330Z,14.67
